Terminal Aerodrome Forecast
Issued by NWS

Home | Current Version | Previous Version | Text Only | Print | Product List | Glossary Off
Versions: 1 2 3 4 5 6 7 8 9 10 11 12 13 14 15 16

045
FTUS43 KMPX 161258 AAA
TAFRWF
TAF AMD
KRWF 161258Z 1613/1712 VRB03KT 6SM BR OVC015
     FM162200 02005KT 4SM -FZRASN BR OVC015
     FM170400 33006KT 1SM BR OVC007=

USA.gov is the U.S. government's official web portal to all federal, state and local government web resources and services.